createdAt,value
2019-05-11T00:00:17.851Z,8.45
2019-05-11T00:05:21.964Z,8.73
2019-05-11T00:15:31.066Z,8.20
2019-05-11T00:25:59.282Z,8.05
2019-05-11T00:31:02.835Z,7.70
2019-05-11T00:36:07.531Z,7.77
2019-05-11T00:41:11.348Z,7.73
2019-05-11T00:51:18.759Z,6.83
2019-05-11T00:56:22.404Z,7.27
2019-05-11T01:06:29.650Z,8.30
2019-05-11T01:11:33.360Z,6.80
2019-05-11T01:21:40.607Z,6.60
2019-05-11T01:26:44.300Z,7.13
2019-05-11T01:31:47.990Z,7.03
2019-05-11T01:36:51.839Z,7.07
2019-05-11T01:41:55.558Z,6.33
2019-05-11T01:46:59.379Z,6.53
2019-05-11T01:57:06.718Z,6.70
2019-05-11T02:02:10.537Z,6.77
2019-05-11T02:07:15.485Z,6.67
2019-05-11T02:12:19.269Z,6.47
2019-05-11T02:17:22.996Z,7.20
2019-05-11T02:22:26.432Z,6.53
2019-05-11T02:27:30.072Z,6.40
2019-05-11T02:32:33.669Z,6.70
2019-05-11T02:37:37.577Z,6.87
2019-05-11T02:42:41.416Z,6.83
2019-05-11T02:47:45.047Z,6.60
2019-05-11T02:52:48.735Z,7.00
2019-05-11T03:07:59.784Z,6.70
2019-05-11T03:13:03.826Z,7.20
2019-05-11T03:18:07.533Z,6.97
2019-05-11T03:23:11.275Z,6.80
2019-05-11T03:28:14.861Z,7.00
2019-05-11T03:33:18.587Z,6.90
2019-05-11T03:38:22.297Z,7.87
2019-05-11T03:43:25.990Z,7.40
2019-05-11T03:48:29.636Z,7.50
2019-05-11T03:53:33.349Z,6.43
2019-05-11T03:58:37.094Z,7.20
2019-05-11T04:03:40.683Z,7.60
2019-05-11T04:08:44.820Z,7.30
2019-05-11T04:13:48.532Z,6.83
2019-05-11T04:18:52.276Z,6.65
2019-05-11T04:23:55.830Z,7.17
2019-05-11T04:28:59.593Z,7.27
2019-05-11T04:34:03.310Z,7.08
2019-05-11T04:39:07.325Z,7.00
2019-05-11T04:44:11.015Z,7.67
2019-05-11T04:49:14.684Z,7.73
2019-05-11T04:54:18.684Z,7.23
2019-05-11T04:59:22.711Z,7.20
2019-05-11T05:04:26.530Z,7.10
2019-05-11T05:09:36.160Z,6.92
2019-05-11T05:19:41.017Z,7.00
2019-05-11T05:24:44.675Z,7.70
2019-05-11T05:29:48.405Z,7.40
2019-05-11T05:34:52.270Z,6.90
2019-05-11T05:39:55.841Z,7.70
2019-05-11T05:44:59.548Z,7.30
2019-05-11T05:50:03.267Z,7.10
2019-05-11T05:55:06.978Z,7.23
2019-05-11T06:05:15.013Z,7.10
2019-05-11T06:10:20.698Z,7.70
2019-05-11T06:20:46.688Z,7.55
2019-05-11T06:25:50.488Z,7.67
2019-05-11T06:35:57.726Z,6.70
2019-05-11T06:41:01.342Z,7.00
2019-05-11T06:46:05.098Z,7.20
2019-05-11T06:51:08.769Z,7.65
2019-05-11T06:56:13.512Z,7.30
2019-05-11T07:01:17.281Z,7.45
2019-05-11T07:06:21.025Z,7.37
2019-05-11T07:11:24.669Z,7.75
2019-05-11T07:16:28.788Z,7.83
2019-05-11T07:21:32.714Z,7.13
2019-05-11T07:26:36.640Z,7.00
2019-05-11T07:31:40.351Z,7.37
2019-05-11T07:36:44.027Z,8.10
2019-05-11T07:41:48.056Z,7.50
2019-05-11T07:46:51.816Z,8.27
2019-05-11T07:51:55.746Z,7.83
2019-05-11T07:56:59.648Z,7.97
2019-05-11T08:02:03.384Z,8.37
2019-05-11T08:07:07.746Z,7.87
2019-05-11T08:12:11.841Z,7.10
2019-05-11T08:17:15.541Z,7.37
2019-05-11T08:22:22.724Z,7.27
2019-05-11T08:27:24.840Z,7.47
2019-05-11T08:32:28.823Z,7.67
2019-05-11T08:37:33.906Z,8.10
2019-05-11T08:42:38.072Z,7.20
2019-05-11T08:52:47.868Z,7.23
2019-05-11T09:02:58.278Z,7.05
2019-05-11T09:08:02.069Z,6.67
2019-05-11T09:13:08.032Z,7.97
2019-05-11T09:18:11.747Z,7.43
2019-05-11T09:28:21.604Z,11.97
2019-05-11T09:33:28.183Z,275.85
2019-05-11T09:38:33.056Z,387.63
2019-05-11T09:48:44.863Z,266.50
2019-05-11T10:09:03.405Z,371.50
2019-05-11T10:19:12.885Z,350.20
2019-05-11T10:24:17.767Z,248.45
2019-05-11T10:29:22.130Z,247.13
2019-05-11T10:34:28.310Z,121.93
2019-05-11T10:39:31.860Z,59.77
2019-05-11T10:49:39.887Z,222.82
2019-05-11T10:54:44.065Z,334.03
2019-05-11T10:59:50.059Z,140.73
2019-05-11T11:04:54.324Z,63.95
2019-05-11T11:15:02.493Z,16.95
2019-05-11T11:25:14.624Z,131.40
2019-05-11T11:30:18.976Z,48.63
2019-05-11T11:40:28.638Z,68.17
2019-05-11T11:45:32.742Z,82.72
2019-05-11T11:55:42.961Z,136.72
2019-05-11T12:05:52.877Z,163.97
2019-05-11T12:16:02.931Z,167.15
2019-05-11T12:21:27.710Z,207.57
2019-05-11T12:26:32.024Z,87.50
2019-05-11T12:31:37.918Z,193.27
2019-05-11T12:36:41.848Z,314.50
2019-05-11T12:41:47.889Z,282.73
2019-05-11T12:46:51.450Z,365.70
2019-05-11T12:51:58.064Z,334.73
2019-05-11T12:57:02.400Z,333.90
2019-05-11T13:02:08.205Z,382.40
2019-05-11T13:22:28.971Z,287.33
2019-05-11T13:27:33.215Z,191.27
2019-05-11T13:32:38.504Z,124.87
2019-05-11T13:37:42.473Z,81.33
2019-05-11T13:42:48.719Z,52.43
2019-05-11T13:47:55.840Z,40.95
2019-05-11T13:58:02.662Z,367.97
2019-05-11T14:03:09.859Z,329.17
2019-05-11T14:08:18.355Z,357.10
2019-05-11T14:13:21.499Z,373.37
2019-05-11T14:18:25.432Z,169.07
2019-05-11T14:23:31.434Z,122.07
2019-05-11T14:28:37.724Z,69.30
2019-05-11T14:33:41.786Z,302.38
2019-05-11T14:38:48.639Z,249.83
2019-05-11T14:43:51.879Z,232.93
2019-05-11T14:54:02.445Z,337.10
2019-05-11T15:09:18.281Z,262.88
2019-05-11T15:14:22.946Z,210.48
2019-05-11T15:19:28.190Z,323.13
2019-05-11T16:00:08.844Z,329.90
2019-05-11T16:10:18.741Z,221.07
2019-05-11T16:20:28.536Z,203.32
2019-05-11T16:25:32.749Z,370.00
2019-05-11T16:35:43.050Z,366.10
2019-05-11T16:45:52.239Z,228.40
2019-05-11T16:50:58.098Z,184.90
2019-05-11T17:01:08.410Z,298.10
2019-05-11T17:11:18.458Z,141.40
2019-05-11T17:26:35.123Z,157.90
2019-05-11T17:41:50.323Z,360.48
2019-05-11T17:51:59.823Z,349.67
2019-05-11T17:57:04.152Z,500.22
2019-05-11T18:02:09.496Z,382.57
2019-05-11T18:07:25.205Z,450.55
2019-05-11T18:12:19.960Z,339.57
2019-05-11T18:23:19.361Z,565.67
2019-05-11T18:28:23.074Z,564.30
2019-05-11T18:33:27.718Z,473.13
2019-05-11T18:38:31.653Z,472.87
2019-05-11T18:43:37.603Z,498.23
2019-05-11T18:48:41.453Z,487.57
2019-05-11T18:53:48.141Z,575.50
2019-05-11T18:58:51.768Z,495.30
2019-05-11T19:03:56.078Z,468.40
2019-05-11T19:09:05.390Z,574.33
2019-05-11T19:19:12.856Z,703.80
2019-05-11T19:24:18.809Z,693.77
2019-05-11T19:33:20.372Z,705.73
2019-05-11T19:38:24.147Z,724.25
2019-05-11T19:43:27.879Z,650.27
2019-05-11T19:48:35.064Z,542.57
2019-05-11T19:53:38.841Z,654.95
2019-05-11T19:58:43.103Z,573.53
2019-05-11T20:03:46.865Z,496.30
2019-05-11T20:08:50.667Z,379.83
2019-05-11T20:13:54.595Z,307.33
2019-05-11T20:18:58.510Z,223.80
2019-05-11T20:24:02.436Z,539.63
2019-05-11T20:34:20.890Z,727.87
2019-05-11T20:39:28.512Z,650.50
2019-05-11T20:44:32.215Z,565.20
2019-05-11T20:49:36.078Z,556.50
2019-05-11T20:54:39.907Z,629.33
2019-05-11T20:59:43.868Z,612.60
2019-05-11T21:04:49.122Z,643.13
2019-05-11T21:09:57.792Z,723.55
2019-05-11T21:15:01.836Z,804.43
2019-05-11T21:20:05.860Z,787.17
2019-05-11T21:25:09.878Z,798.00
2019-05-11T21:30:13.710Z,712.07
2019-05-11T21:35:19.177Z,663.63
2019-05-11T21:40:23.897Z,701.07
2019-05-11T21:45:28.343Z,759.53
2019-05-11T21:55:37.762Z,695.00
2019-05-11T22:00:41.900Z,661.97
2019-05-11T22:05:45.662Z,582.50
2019-05-11T22:10:49.607Z,515.80
2019-05-11T22:15:53.408Z,465.33
2019-05-11T22:20:58.014Z,379.67
2019-05-11T22:26:01.767Z,314.60
2019-05-11T22:36:10.749Z,218.57
2019-05-11T22:41:14.771Z,171.27
2019-05-11T22:46:19.467Z,126.80
2019-05-11T22:56:30.931Z,68.70
2019-05-11T23:01:34.649Z,59.10
2019-05-11T23:06:40.489Z,267.43
2019-05-11T23:11:43.825Z,330.97
2019-05-11T23:16:49.782Z,308.60
2019-05-11T23:21:53.091Z,462.77
2019-05-11T23:26:56.821Z,449.23
2019-05-11T23:32:00.642Z,439.80
2019-05-11T23:37:07.989Z,481.67
2019-05-11T23:42:11.762Z,467.68
2019-05-11T23:47:20.052Z,537.67
2019-05-11T23:57:24.874Z,626.80
